createdAt,value
2023-02-05T00:09:30.247Z,3.65
2023-02-05T00:19:34.417Z,3.58
2023-02-05T00:29:37.207Z,3.42
2023-02-05T00:39:41.474Z,3.36
2023-02-05T00:49:44.446Z,3.46
2023-02-05T00:59:48.434Z,3.53
2023-02-05T01:09:51.147Z,3.54
2023-02-05T01:19:55.269Z,3.57
2023-02-05T01:29:57.971Z,3.65
2023-02-05T01:40:02.067Z,3.71
2023-02-05T01:50:04.809Z,3.80
2023-02-05T02:00:11.270Z,3.85
2023-02-05T02:10:16.299Z,3.94
2023-02-05T02:20:23.821Z,3.90
2023-02-05T02:30:33.450Z,3.91
2023-02-05T02:40:41.484Z,3.93
2023-02-05T02:50:49.412Z,3.95
2023-02-05T03:00:54.204Z,4.04
2023-02-05T03:11:03.608Z,4.04
2023-02-05T03:21:10.680Z,4.15
2023-02-05T03:31:19.688Z,3.97
2023-02-05T03:41:52.932Z,3.89
2023-02-05T03:52:01.969Z,3.77
2023-02-05T04:02:05.612Z,3.78
2023-02-05T04:12:10.940Z,3.80
2023-02-05T04:22:13.564Z,3.94
2023-02-05T04:32:17.626Z,3.90
2023-02-05T04:42:20.404Z,3.95
2023-02-05T04:52:24.593Z,3.97
2023-02-05T05:02:27.470Z,4.04
2023-02-05T05:12:31.454Z,3.98
2023-02-05T05:22:34.521Z,3.92
2023-02-05T05:32:38.486Z,3.98
2023-02-05T05:42:58.436Z,3.83
2023-02-05T05:53:02.401Z,3.99
2023-02-05T06:03:05.439Z,4.00
2023-02-05T06:13:09.404Z,4.00
2023-02-05T06:23:12.111Z,4.05
2023-02-05T06:33:16.185Z,4.12
2023-02-05T06:43:18.833Z,4.18
2023-02-05T06:53:22.869Z,4.27
2023-02-05T07:03:25.497Z,4.28
2023-02-05T07:13:29.618Z,4.34
2023-02-05T07:23:32.492Z,4.36
2023-02-05T07:33:36.983Z,4.36
2023-02-05T07:43:40.426Z,4.62
2023-02-05T07:53:44.442Z,4.71
2023-02-05T08:03:47.085Z,4.79
2023-02-05T08:13:51.331Z,4.83
2023-02-05T08:23:53.953Z,4.90
2023-02-05T08:33:59.974Z,5.10
2023-02-05T08:44:02.624Z,5.36
2023-02-05T08:54:09.203Z,5.49
2023-02-05T09:04:14.152Z,5.65
2023-02-05T09:14:18.243Z,5.51
2023-02-05T09:24:20.903Z,5.39
2023-02-05T09:34:24.857Z,5.55
2023-02-05T09:44:43.455Z,5.49
2023-02-05T09:54:53.042Z,5.19
2023-02-05T10:04:55.941Z,5.20
2023-02-05T10:15:12.601Z,5.46
2023-02-05T10:25:50.416Z,6.28
2023-02-05T10:36:02.095Z,6.66
2023-02-05T10:46:06.422Z,6.76
2023-02-05T10:56:17.609Z,7.43
2023-02-05T11:06:22.379Z,8.15
2023-02-05T11:16:36.583Z,9.00
2023-02-05T11:26:39.194Z,8.52
2023-02-05T11:36:50.768Z,9.72
2023-02-05T11:46:56.872Z,11.14
2023-02-05T11:57:07.446Z,9.79
2023-02-05T12:07:13.284Z,9.50
2023-02-05T12:17:42.990Z,11.52
2023-02-05T12:27:58.270Z,12.02
2023-02-05T12:38:13.494Z,10.72
2023-02-05T12:48:40.244Z,9.97
2023-02-05T12:58:47.488Z,10.11
2023-02-05T13:08:53.118Z,9.93
2023-02-05T13:19:01.966Z,9.84
2023-02-05T13:29:10.252Z,9.20
2023-02-05T13:39:38.281Z,9.23
2023-02-05T13:50:06.842Z,9.84
2023-02-05T14:00:14.598Z,9.42
2023-02-05T14:10:28.854Z,9.46
2023-02-05T14:20:38.172Z,9.42
2023-02-05T14:30:53.128Z,9.99
2023-02-05T14:41:09.129Z,9.41
2023-02-05T14:51:22.484Z,9.26
2023-02-05T15:01:44.440Z,9.23
2023-02-05T15:12:04.562Z,9.12
2023-02-05T15:22:22.471Z,8.79
2023-02-05T15:32:29.655Z,8.65
2023-02-05T15:42:38.185Z,8.41
2023-02-05T15:52:41.252Z,7.99
2023-02-05T16:02:54.682Z,7.71
2023-02-05T16:13:01.805Z,7.34
2023-02-05T16:23:08.796Z,7.09
2023-02-05T16:33:23.047Z,6.83
2023-02-05T16:43:32.449Z,6.60
2023-02-05T16:53:38.150Z,6.35
2023-02-05T17:03:48.983Z,6.19
2023-02-05T17:13:51.729Z,5.93
2023-02-05T17:23:59.148Z,6.01
2023-02-05T17:34:02.205Z,5.72
2023-02-05T17:44:06.989Z,5.72
2023-02-05T17:54:13.598Z,5.55
2023-02-05T18:04:18.513Z,5.47
2023-02-05T18:14:22.316Z,5.43
2023-02-05T18:24:26.783Z,5.38
2023-02-05T18:34:29.425Z,5.31
2023-02-05T18:44:33.627Z,5.26
2023-02-05T18:54:36.266Z,5.21
2023-02-05T19:04:41.101Z,5.15
2023-02-05T19:14:43.795Z,5.04
2023-02-05T19:24:47.756Z,4.76
2023-02-05T19:34:50.336Z,4.74
2023-02-05T19:44:54.305Z,4.65
2023-02-05T19:54:56.918Z,4.39
2023-02-05T20:05:00.961Z,4.19
2023-02-05T20:15:04.009Z,3.98
2023-02-05T20:25:08.761Z,3.85
2023-02-05T20:35:12.231Z,3.62
2023-02-05T20:45:17.244Z,3.64
2023-02-05T20:55:20.329Z,3.62
2023-02-05T21:05:26.420Z,3.49
2023-02-05T21:15:29.221Z,3.39
2023-02-05T21:25:36.214Z,3.20
2023-02-05T21:35:40.370Z,3.01
2023-02-05T21:45:44.464Z,3.01
2023-02-05T22:06:44.119Z,3.15
2023-02-05T22:16:53.692Z,3.20
2023-02-05T22:49:43.319Z,3.00
2023-02-05T23:12:11.728Z,3.10
2023-02-05T23:22:16.207Z,2.86
2023-02-05T23:43:47.228Z,2.98
2023-02-05T23:54:27.882Z,3.11
